Time;durP1;ratioP1;P1;durP2;ratioP2;P2;SDS_P1;SDS_P2;PMS_P1;PMS_P2;Temp;Humidity;BMP_temperature;BMP_pressure;BME280_temperature;BME280_humidity;BME280_pressure;Samples;Min_cycle;Max_cycle;Signal;HPM_P1;HPM_P2
2021/10/31 00:00:12;;;;;;;135.13;93.68;;;3.00;99.90;;;;;;5071524;28;20104;-73
2021/10/31 00:02:39;;;;;;;147.23;100.38;;;3.10;99.90;;;;;;5063606;28;20032;-73
2021/10/31 00:05:05;;;;;;;136.48;98.35;;;3.20;99.90;;;;;;5058076;28;20052;-72
2021/10/31 00:07:31;;;;;;;160.82;113.38;;;3.10;99.90;;;;;;5072249;28;20027;-72
2021/10/31 00:09:56;;;;;;;145.57;102.97;;;3.10;99.90;;;;;;5072217;28;20441;-74
2021/10/31 00:12:22;;;;;;;139.25;99.85;;;3.00;99.90;;;;;;5054601;28;20032;-74
2021/10/31 00:14:48;;;;;;;137.02;97.35;;;3.00;99.60;;;;;;5058233;28;20425;-74
2021/10/31 00:17:14;;;;;;;140.02;100.93;;;2.90;99.90;;;;;;5075930;28;20025;-74
2021/10/31 00:19:39;;;;;;;139.68;97.95;;;2.90;99.90;;;;;;5056720;28;20049;-75
2021/10/31 00:22:05;;;;;;;148.27;101.63;;;2.90;99.90;;;;;;5074162;28;20031;-75
2021/10/31 00:24:31;;;;;;;148.43;101.65;;;2.90;99.90;;;;;;5059917;28;20040;-73
2021/10/31 00:26:57;;;;;;;154.07;106.78;;;2.90;99.90;;;;;;5075541;28;20041;-73
2021/10/31 00:29:22;;;;;;;173.40;118.32;;;2.80;99.70;;;;;;5052249;28;20402;-71
2021/10/31 00:31:48;;;;;;;173.73;116.88;;;2.80;99.10;;;;;;5057772;28;20021;-74
2021/10/31 00:34:14;;;;;;;152.65;105.28;;;2.70;98.80;;;;;;5075361;28;20029;-74
2021/10/31 00:36:40;;;;;;;146.00;104.82;;;2.70;98.70;;;;;;5073402;28;20017;-73
2021/10/31 00:39:06;;;;;;;135.88;97.55;;;2.70;98.80;;;;;;5075591;28;20036;-75
2021/10/31 00:41:33;;;;;;;145.95;103.03;;;2.70;98.80;;;;;;5074368;28;20027;-74
2021/10/31 00:43:59;;;;;;;142.05;101.55;;;2.70;98.80;;;;;;5076135;28;20109;-76
2021/10/31 00:46:24;;;;;;;130.30;95.13;;;2.60;98.40;;;;;;5075375;28;20029;-74
2021/10/31 00:48:50;;;;;;;126.53;90.85;;;2.60;98.50;;;;;;5057641;28;20485;-74
2021/10/31 00:51:17;;;;;;;156.35;109.20;;;2.60;98.80;;;;;;5074361;28;20046;-73
2021/10/31 00:53:43;;;;;;;184.05;97.07;;;2.60;97.10;;;;;;5075144;28;20037;-74
2021/10/31 00:56:10;;;;;;;155.55;97.97;;;2.40;97.00;;;;;;5089035;28;20028;-74
2021/10/31 00:58:36;;;;;;;152.30;90.60;;;2.40;97.20;;;;;;5057221;28;20025;-74
2021/10/31 01:01:02;;;;;;;151.23;103.72;;;2.20;99.00;;;;;;5054801;28;20027;-73
2021/10/31 01:03:28;;;;;;;114.80;80.45;;;2.20;99.90;;;;;;5061803;28;20048;-74
2021/10/31 01:06:08;;;;;;;126.97;86.78;;;2.20;99.90;;;;;;5056735;28;20037;-73
2021/10/31 01:08:45;;;;;;;139.70;92.72;;;2.30;99.90;;;;;;5049666;28;20029;-73
2021/10/31 01:11:41;;;;;;;133.02;87.97;;;2.40;99.90;;;;;;5057067;28;20025;-73
2021/10/31 01:14:42;;;;;;;140.77;94.65;;;2.40;99.90;;;;;;5078035;28;20078;-74
2021/10/31 01:17:36;;;;;;;121.32;81.80;;;2.50;99.90;;;;;;5057528;28;20013;-73
2021/10/31 01:20:36;;;;;;;139.75;92.65;;;2.50;99.90;;;;;;5060621;28;20021;-75
2021/10/31 01:23:13;;;;;;;120.05;79.45;;;2.60;99.90;;;;;;5073879;28;20036;-73
2021/10/31 01:26:12;;;;;;;121.22;82.13;;;2.70;99.90;;;;;;5072861;28;20056;-77
2021/10/31 01:28:59;;;;;;;133.95;87.60;;;2.80;99.90;;;;;;5054619;28;20399;-75
2021/10/31 01:31:49;;;;;;;131.52;88.22;;;2.90;99.90;;;;;;5051307;28;20032;-74
2021/10/31 01:34:37;;;;;;;136.13;88.80;;;2.80;99.90;;;;;;5067778;28;20070;-77
2021/10/31 01:37:20;;;;;;;116.57;80.22;;;2.80;99.90;;;;;;5055785;28;20025;-74
2021/10/31 01:39:55;;;;;;;125.03;85.80;;;2.80;99.90;;;;;;5074919;28;20047;-74
2021/10/31 01:42:55;;;;;;;125.90;86.00;;;2.80;99.90;;;;;;5056233;28;20033;-74
2021/10/31 01:45:31;;;;;;;116.47;79.97;;;2.70;99.90;;;;;;5063498;28;20111;-74
2021/10/31 01:48:03;;;;;;;115.47;79.00;;;2.60;99.60;;;;;;5056080;28;20020;-74
2021/10/31 01:51:00;;;;;;;122.63;79.85;;;2.60;99.90;;;;;;5074293;28;20031;-74
2021/10/31 01:53:32;;;;;;;109.07;76.28;;;2.60;99.90;;;;;;5043008;28;20543;-75
2021/10/31 01:56:10;;;;;;;124.63;85.95;;;2.60;99.90;;;;;;5055832;28;20077;-74
2021/10/31 01:58:43;;;;;;;139.55;93.70;;;2.60;99.90;;;;;;5043198;28;20072;-74
2021/10/31 02:01:14;;;;;;;161.93;109.72;;;2.60;99.90;;;;;;5055566;28;20020;-74
2021/10/31 02:03:40;;;;;;;121.50;84.97;;;2.60;99.90;;;;;;5060583;28;20033;-73
2021/10/31 02:06:07;;;;;;;116.60;81.22;;;2.70;99.90;;;;;;5073687;28;20028;-74
2021/10/31 02:08:34;;;;;;;120.18;82.07;;;2.70;99.90;;;;;;5071780;28;20462;-73
2021/10/31 02:11:01;;;;;;;118.57;81.18;;;2.70;99.90;;;;;;5057291;28;20035;-74
2021/10/31 02:13:28;;;;;;;120.03;82.28;;;2.70;99.80;;;;;;5069113;28;20039;-78
2021/10/31 02:15:55;;;;;;;117.68;83.18;;;2.60;99.10;;;;;;5060778;28;20044;-82
2021/10/31 02:18:24;;;;;;;109.65;79.05;;;2.60;98.70;;;;;;5073601;28;20032;-82
2021/10/31 02:20:55;;;;;;;107.38;76.85;;;2.60;98.30;;;;;;5072192;28;20101;-82
2021/10/31 02:23:21;;;;;;;108.32;77.38;;;2.50;98.50;;;;;;5062765;28;20045;-82
2021/10/31 02:25:47;;;;;;;112.63;79.75;;;2.50;98.80;;;;;;5055624;28;20041;-82
2021/10/31 02:28:13;;;;;;;123.07;83.05;;;2.50;99.10;;;;;;5055424;28;20024;-78
2021/10/31 02:30:39;;;;;;;121.10;80.68;;;2.40;98.60;;;;;;5056092;28;20024;-82
2021/10/31 02:33:05;;;;;;;110.05;78.00;;;2.40;98.10;;;;;;5056712;28;20024;-82
2021/10/31 02:35:30;;;;;;;107.65;75.97;;;2.40;98.20;;;;;;5073168;28;20131;-81
2021/10/31 02:37:56;;;;;;;123.97;80.07;;;2.40;98.20;;;;;;5066223;28;20028;-81
2021/10/31 02:40:23;;;;;;;115.22;78.75;;;2.30;97.80;;;;;;5065897;28;20032;-82
2021/10/31 02:42:50;;;;;;;113.20;78.43;;;2.30;97.80;;;;;;5073491;28;20031;-81
2021/10/31 02:45:16;;;;;;;119.90;81.07;;;2.30;98.20;;;;;;5055662;28;20451;-80
2021/10/31 02:47:59;;;;;;;112.30;78.75;;;2.20;98.30;;;;;;5054325;28;20033;-82
2021/10/31 02:50:31;;;;;;;132.02;88.13;;;2.10;98.20;;;;;;5074063;28;20387;-83
2021/10/31 02:53:17;;;;;;;127.40;86.97;;;2.10;99.60;;;;;;5055646;28;20081;-80
2021/10/31 02:55:46;;;;;;;117.63;80.72;;;2.20;99.80;;;;;;5073566;28;20025;-79
2021/10/31 02:58:17;;;;;;;143.27;96.55;;;2.20;99.40;;;;;;5072102;28;20025;-80
2021/10/31 03:00:43;;;;;;;135.38;90.03;;;2.20;99.50;;;;;;5061696;28;20490;-82
2021/10/31 03:03:11;;;;;;;182.68;126.63;;;2.20;99.30;;;;;;5073023;28;20033;-81
2021/10/31 03:05:37;;;;;;;122.55;81.80;;;2.20;99.30;;;;;;5054544;28;20062;-81
2021/10/31 03:08:03;;;;;;;145.00;97.47;;;2.30;99.30;;;;;;5055158;28;20063;-81
2021/10/31 03:10:28;;;;;;;131.13;83.78;;;2.40;99.20;;;;;;5055066;28;20463;-80
2021/10/31 03:12:55;;;;;;;115.22;80.72;;;2.40;98.40;;;;;;5054023;28;20024;-82
2021/10/31 03:15:22;;;;;;;130.43;81.28;;;2.30;97.40;;;;;;5072635;28;20154;-82
2021/10/31 03:17:47;;;;;;;110.35;77.05;;;2.20;97.30;;;;;;5070108;28;20021;-81
2021/10/31 03:20:13;;;;;;;125.53;86.07;;;2.20;98.10;;;;;;5071297;28;20032;-81
2021/10/31 03:22:39;;;;;;;558.67;271.00;;;2.20;98.20;;;;;;5051251;28;20025;-82
2021/10/31 03:25:05;;;;;;;204.60;119.32;;;2.20;98.30;;;;;;5070354;28;20090;-81
2021/10/31 03:27:31;;;;;;;718.80;300.35;;;2.10;98.60;;;;;;5054267;28;20425;-81
2021/10/31 03:29:57;;;;;;;297.52;126.57;;;2.10;99.90;;;;;;5048193;28;20024;-75
2021/10/31 03:32:23;;;;;;;232.25;107.30;;;2.20;99.90;;;;;;5070838;28;20030;-77
2021/10/31 03:34:49;;;;;;;150.57;87.72;;;2.30;99.90;;;;;;5072890;28;20043;-75
2021/10/31 03:37:15;;;;;;;91.82;64.60;;;2.50;99.90;;;;;;5046949;28;20043;-75
2021/10/31 03:39:41;;;;;;;183.63;93.75;;;2.50;99.90;;;;;;5072479;28;20453;-82
2021/10/31 03:42:06;;;;;;;235.82;111.32;;;2.50;99.10;;;;;;5054657;28;20367;-78
2021/10/31 03:44:36;;;;;;;99.43;66.70;;;2.50;98.70;;;;;;5072753;28;20124;-81
2021/10/31 03:47:03;;;;;;;136.63;78.45;;;2.40;97.90;;;;;;5073085;28;20059;-81
2021/10/31 03:49:29;;;;;;;132.07;79.75;;;2.40;98.40;;;;;;5058468;28;20479;-82
2021/10/31 03:51:55;;;;;;;104.30;69.68;;;2.40;99.60;;;;;;5071665;28;20053;-77
2021/10/31 03:54:21;;;;;;;112.28;73.57;;;2.40;99.00;;;;;;5051119;28;20028;-81
2021/10/31 03:56:47;;;;;;;102.10;67.63;;;2.50;99.90;;;;;;5074520;28;20027;-82
2021/10/31 03:59:12;;;;;;;91.57;64.75;;;2.50;99.90;;;;;;5056950;28;20451;-78
2021/10/31 04:01:38;;;;;;;92.00;65.53;;;2.50;99.90;;;;;;5051186;28;20028;-82
2021/10/31 04:04:04;;;;;;;98.28;68.15;;;2.60;99.90;;;;;;5075449;28;20078;-82
2021/10/31 04:06:30;;;;;;;101.22;68.20;;;2.70;99.90;;;;;;5075190;28;20489;-82
2021/10/31 04:08:55;;;;;;;98.70;69.93;;;2.80;99.90;;;;;;5064918;28;20029;-82
2021/10/31 04:11:22;;;;;;;84.18;59.42;;;2.80;99.90;;;;;;5053036;28;20025;-81
2021/10/31 04:13:47;;;;;;;93.53;65.07;;;2.80;99.90;;;;;;5076551;28;20025;-79
2021/10/31 04:16:13;;;;;;;93.95;66.25;;;2.80;99.90;;;;;;5076032;28;20105;-81
2021/10/31 04:18:39;;;;;;;96.47;66.32;;;2.90;99.90;;;;;;5057439;28;20047;-82
2021/10/31 04:21:04;;;;;;;91.90;65.03;;;2.80;99.90;;;;;;5057301;28;20063;-76
2021/10/31 04:23:30;;;;;;;99.32;69.68;;;2.80;99.90;;;;;;5053869;28;20083;-75
2021/10/31 04:25:56;;;;;;;101.18;69.20;;;2.80;99.90;;;;;;5068389;28;20068;-74
2021/10/31 04:28:24;;;;;;;109.97;76.25;;;2.70;99.90;;;;;;5068812;28;20040;-74
2021/10/31 04:30:50;;;;;;;106.72;73.55;;;2.80;99.90;;;;;;5054773;28;20020;-74
2021/10/31 04:33:16;;;;;;;97.57;67.43;;;2.70;99.90;;;;;;5050259;28;20494;-71
2021/10/31 04:35:42;;;;;;;89.82;62.40;;;2.70;99.90;;;;;;5068612;28;20021;-75
2021/10/31 04:38:14;;;;;;;83.15;57.13;;;2.60;99.90;;;;;;5060285;28;20368;-75
2021/10/31 04:40:40;;;;;;;110.18;75.30;;;2.60;99.90;;;;;;5071986;28;20039;-75
2021/10/31 04:43:11;;;;;;;95.32;67.05;;;2.60;99.90;;;;;;5075503;28;20033;-81
2021/10/31 04:45:42;;;;;;;97.63;66.68;;;2.60;99.90;;;;;;5064928;28;20489;-74
2021/10/31 04:48:09;;;;;;;94.75;66.68;;;2.70;99.90;;;;;;5072453;28;20048;-74
2021/10/31 04:50:34;;;;;;;96.82;65.40;;;2.70;99.90;;;;;;5055737;28;20021;-74
2021/10/31 04:53:01;;;;;;;98.65;70.38;;;2.90;99.90;;;;;;5071680;28;20039;-75
2021/10/31 04:55:27;;;;;;;92.85;65.57;;;3.00;99.90;;;;;;5053353;28;20090;-75
2021/10/31 04:57:53;;;;;;;88.65;64.63;;;3.20;99.90;;;;;;5055839;28;20124;-74
2021/10/31 05:00:19;;;;;;;90.28;64.55;;;3.40;99.90;;;;;;5073593;28;20425;-73
2021/10/31 05:02:44;;;;;;;87.57;62.47;;;3.50;98.30;;;;;;5043211;28;20025;-73
2021/10/31 05:05:10;;;;;;;93.38;65.15;;;3.70;98.10;;;;;;5072465;28;20027;-72
2021/10/31 05:07:36;;;;;;;158.75;107.45;;;3.80;98.20;;;;;;5069707;28;20440;-73
2021/10/31 05:10:02;;;;;;;110.60;78.50;;;4.10;98.30;;;;;;5043197;28;20032;-73
2021/10/31 05:12:28;;;;;;;92.45;62.53;;;4.40;99.20;;;;;;5056036;28;20471;-72
2021/10/31 05:14:54;;;;;;;151.07;113.13;;;4.80;99.20;;;;;;5071718;28;20070;-74
2021/10/31 05:17:20;;;;;;;108.40;71.10;;;5.20;98.10;;;;;;5070527;28;20066;-73
2021/10/31 05:19:46;;;;;;;203.13;113.65;;;5.60;95.70;;;;;;5072618;28;20052;-74
2021/10/31 05:22:12;;;;;;;92.65;60.20;;;6.00;93.80;;;;;;5071089;28;20063;-73
2021/10/31 05:24:37;;;;;;;82.72;57.63;;;6.40;93.20;;;;;;5073650;28;20036;-73
2021/10/31 05:27:03;;;;;;;79.80;55.70;;;6.80;91.80;;;;;;5045048;28;20140;-75
2021/10/31 05:29:29;;;;;;;72.72;51.47;;;7.20;90.50;;;;;;5050038;28;20086;-76
2021/10/31 05:31:55;;;;;;;65.30;44.53;;;7.60;88.20;;;;;;5062389;28;20029;-76
2021/10/31 05:34:20;;;;;;;58.88;40.38;;;8.00;87.40;;;;;;5072834;28;20078;-74
2021/10/31 05:36:46;;;;;;;60.63;42.33;;;8.50;86.10;;;;;;5069945;28;20039;-76
2021/10/31 05:39:12;;;;;;;62.25;46.00;;;9.00;84.10;;;;;;5070851;28;20016;-73
2021/10/31 05:41:37;;;;;;;65.30;45.10;;;9.50;81.30;;;;;;5050732;28;20463;-73
2021/10/31 05:44:03;;;;;;;62.55;44.72;;;9.90;79.10;;;;;;5060587;28;20041;-74
2021/10/31 05:46:31;;;;;;;54.78;40.92;;;10.40;77.40;;;;;;5072700;28;20092;-72
2021/10/31 05:48:58;;;;;;;56.25;39.67;;;10.70;75.80;;;;;;5073894;28;20481;-72
2021/10/31 05:51:23;;;;;;;64.15;43.28;;;11.10;74.50;;;;;;5054885;28;20119;-75
2021/10/31 05:53:49;;;;;;;82.53;49.15;;;11.40;72.90;;;;;;5068141;28;20147;-75
2021/10/31 05:56:15;;;;;;;66.40;44.55;;;11.80;71.20;;;;;;5055865;28;20032;-76
2021/10/31 05:58:41;;;;;;;73.72;48.00;;;12.10;70.10;;;;;;5066472;28;20024;-75
2021/10/31 06:01:07;;;;;;;75.35;49.13;;;12.40;68.70;;;;;;5068576;28;20028;-76
2021/10/31 06:03:32;;;;;;;60.97;43.63;;;12.60;67.60;;;;;;5068156;28;20032;-70
2021/10/31 06:06:00;;;;;;;49.28;38.67;;;12.80;67.30;;;;;;5068034;28;20029;-72
2021/10/31 06:08:27;;;;;;;58.90;40.65;;;13.20;66.50;;;;;;5055505;28;20060;-75
2021/10/31 06:10:53;;;;;;;56.42;41.65;;;13.70;65.20;;;;;;5072408;28;20024;-79
2021/10/31 06:13:19;;;;;;;63.63;44.20;;;14.00;64.20;;;;;;5067841;28;20714;-80
2021/10/31 06:15:48;;;;;;;60.67;43.17;;;14.40;62.70;;;;;;5053567;28;20394;-75
2021/10/31 06:18:18;;;;;;;62.13;45.17;;;14.70;61.60;;;;;;5062153;28;20457;-74
2021/10/31 06:20:45;;;;;;;60.80;45.15;;;14.80;60.50;;;;;;5069685;28;20112;-73
2021/10/31 06:23:11;;;;;;;71.40;49.13;;;15.00;60.20;;;;;;5052365;28;20028;-78
2021/10/31 06:25:37;;;;;;;70.15;50.10;;;15.20;59.40;;;;;;5063843;28;20045;-76
2021/10/31 06:28:03;;;;;;;76.47;55.55;;;15.40;59.00;;;;;;5060911;28;20024;-75
2021/10/31 06:30:28;;;;;;;85.53;59.72;;;15.70;58.50;;;;;;5065612;28;20029;-76
2021/10/31 06:32:54;;;;;;;114.07;70.53;;;15.80;58.00;;;;;;5054180;28;20363;-75
2021/10/31 06:35:20;;;;;;;88.78;61.22;;;15.90;57.80;;;;;;5043024;28;20037;-75
2021/10/31 06:37:48;;;;;;;89.88;64.22;;;16.00;57.70;;;;;;5067949;28;20071;-74
2021/10/31 06:40:14;;;;;;;73.25;52.40;;;16.10;57.60;;;;;;5051746;28;20043;-76
2021/10/31 06:42:39;;;;;;;77.13;53.65;;;16.20;57.40;;;;;;5052863;28;20139;-74
2021/10/31 06:45:06;;;;;;;74.40;54.40;;;16.30;57.20;;;;;;5065315;28;20044;-76
2021/10/31 06:47:32;;;;;;;78.45;52.95;;;16.60;56.60;;;;;;5053839;28;20029;-75
2021/10/31 06:49:59;;;;;;;71.13;48.20;;;16.80;56.30;;;;;;5059523;28;20044;-75
2021/10/31 06:52:25;;;;;;;82.15;53.65;;;16.90;56.20;;;;;;5062745;28;20483;-74
2021/10/31 06:54:51;;;;;;;68.45;48.75;;;17.20;56.00;;;;;;5064271;28;20028;-76
2021/10/31 06:57:17;;;;;;;76.32;50.13;;;17.50;55.50;;;;;;5063739;28;20028;-76
2021/10/31 06:59:43;;;;;;;60.42;43.45;;;17.80;54.90;;;;;;5069900;28;20020;-76
2021/10/31 07:02:08;;;;;;;53.83;43.70;;;18.20;54.50;;;;;;5052175;28;20032;-75
2021/10/31 07:04:34;;;;;;;65.05;45.10;;;18.40;53.90;;;;;;5064045;28;20098;-73
2021/10/31 07:07:01;;;;;;;58.58;44.67;;;18.70;53.60;;;;;;5065733;28;20070;-77
2021/10/31 07:09:26;;;;;;;49.42;39.30;;;18.80;53.40;;;;;;5068327;28;20467;-74
2021/10/31 07:11:52;;;;;;;53.80;41.95;;;19.00;53.10;;;;;;5052375;28;20025;-75
2021/10/31 07:14:18;;;;;;;53.15;38.38;;;19.20;52.70;;;;;;5072687;28;20048;-74
2021/10/31 07:16:44;;;;;;;47.67;33.92;;;19.30;52.80;;;;;;5074354;28;20079;-76
2021/10/31 07:19:10;;;;;;;47.20;34.45;;;19.50;52.70;;;;;;5063401;28;20055;-74
2021/10/31 07:21:37;;;;;;;32.63;25.73;;;19.70;52.40;;;;;;5067364;28;20029;-73
2021/10/31 07:24:04;;;;;;;29.35;23.65;;;19.90;52.30;;;;;;5045523;28;20049;-74
2021/10/31 07:26:30;;;;;;;24.80;19.17;;;20.20;51.80;;;;;;5075963;28;20048;-74
2021/10/31 07:28:56;;;;;;;29.67;22.13;;;20.50;51.10;;;;;;5048630;28;20086;-76
2021/10/31 07:31:23;;;;;;;35.08;24.42;;;20.60;50.70;;;;;;5074486;28;20033;-76
2021/10/31 07:33:49;;;;;;;33.55;24.55;;;20.60;50.40;;;;;;5075858;28;20040;-79
2021/10/31 07:36:15;;;;;;;32.38;24.02;;;20.70;50.50;;;;;;5068962;28;20475;-77
2021/10/31 07:38:42;;;;;;;26.88;19.95;;;20.60;50.50;;;;;;5074258;28;20043;-77
2021/10/31 07:41:08;;;;;;;28.02;20.40;;;20.70;50.20;;;;;;5057057;28;20063;-77
2021/10/31 07:43:34;;;;;;;24.52;20.27;;;20.70;50.20;;;;;;5056889;28;20064;-77
2021/10/31 07:46:00;;;;;;;28.58;21.08;;;20.70;50.40;;;;;;5059431;28;20029;-78
2021/10/31 07:48:25;;;;;;;24.05;19.63;;;20.70;50.30;;;;;;5055626;28;20040;-78
2021/10/31 07:50:51;;;;;;;26.02;19.30;;;20.90;50.50;;;;;;5067750;28;20021;-76
2021/10/31 07:53:17;;;;;;;23.55;18.23;;;21.10;50.50;;;;;;5067054;28;20024;-73
2021/10/31 07:55:49;;;;;;;22.77;17.95;;;21.30;50.10;;;;;;5056127;28;20036;-78
2021/10/31 07:58:16;;;;;;;31.42;21.20;;;21.40;49.70;;;;;;5058268;28;20371;-77
2021/10/31 08:00:42;;;;;;;27.52;19.75;;;21.60;49.80;;;;;;5073837;28;20558;-72
2021/10/31 08:03:08;;;;;;;33.13;26.10;;;21.60;49.20;;;;;;5082748;28;21990;-76
2021/10/31 08:05:33;;;;;;;25.52;20.00;;;21.60;49.10;;;;;;5068257;28;20067;-80
2021/10/31 08:07:59;;;;;;;27.35;19.88;;;21.40;49.10;;;;;;5060283;28;20040;-76
2021/10/31 08:10:26;;;;;;;28.40;20.08;;;21.30;49.70;;;;;;5051668;28;20028;-77
2021/10/31 08:12:52;;;;;;;28.67;22.23;;;21.20;49.40;;;;;;5056567;28;20063;-77
2021/10/31 08:15:18;;;;;;;31.02;22.63;;;21.10;50.10;;;;;;5061223;28;20052;-78
2021/10/31 08:17:44;;;;;;;33.75;24.45;;;21.20;50.20;;;;;;5059341;28;20436;-76
2021/10/31 08:20:10;;;;;;;30.77;21.60;;;21.30;49.70;;;;;;5067846;28;20028;-79
2021/10/31 08:22:37;;;;;;;26.20;20.35;;;21.30;49.50;;;;;;5054088;28;20024;-76
2021/10/31 08:25:06;;;;;;;30.48;20.92;;;21.30;49.50;;;;;;5059374;28;20052;-78
2021/10/31 08:27:32;;;;;;;26.15;20.70;;;21.30;49.10;;;;;;5055969;28;20020;-76
2021/10/31 08:29:58;;;;;;;34.85;24.50;;;21.40;49.00;;;;;;5066076;28;20036;-75
2021/10/31 08:32:26;;;;;;;25.38;20.10;;;21.30;49.00;;;;;;5053010;28;20082;-76
2021/10/31 08:34:52;;;;;;;25.58;18.90;;;21.40;49.40;;;;;;5047730;28;20048;-78
2021/10/31 08:37:18;;;;;;;28.83;23.98;;;21.60;48.80;;;;;;5068525;28;20024;-78
2021/10/31 08:39:44;;;;;;;33.13;25.45;;;21.70;48.40;;;;;;5073787;28;20353;-74
2021/10/31 08:42:12;;;;;;;23.73;18.75;;;21.70;48.60;;;;;;5071627;28;20029;-80
2021/10/31 08:44:40;;;;;;;25.80;18.33;;;21.80;48.00;;;;;;5056843;28;20044;-76
2021/10/31 08:47:06;;;;;;;22.77;17.63;;;21.70;47.70;;;;;;5053936;28;20028;-77
2021/10/31 08:49:32;;;;;;;29.52;20.33;;;21.70;47.70;;;;;;5074074;28;20036;-79
2021/10/31 08:52:04;;;;;;;29.77;21.33;;;21.80;47.90;;;;;;5064416;28;20037;-79
2021/10/31 08:54:29;;;;;;;23.30;18.33;;;22.00;47.70;;;;;;5047601;28;20069;-77
2021/10/31 08:56:55;;;;;;;24.42;17.98;;;22.10;47.60;;;;;;5071931;28;20036;-76
2021/10/31 08:59:21;;;;;;;20.50;16.63;;;22.30;47.50;;;;;;5071110;28;20089;-76
2021/10/31 09:01:46;;;;;;;29.92;19.60;;;22.30;47.10;;;;;;5055204;28;20021;-77
2021/10/31 09:04:12;;;;;;;28.30;19.83;;;22.40;47.20;;;;;;5054147;28;20467;-79
2021/10/31 09:06:38;;;;;;;21.05;16.45;;;22.50;47.00;;;;;;5072544;28;20040;-77
2021/10/31 09:09:03;;;;;;;22.98;17.13;;;22.40;46.50;;;;;;5066876;28;20462;-73
2021/10/31 09:11:29;;;;;;;23.88;18.30;;;22.40;46.60;;;;;;5056287;28;20040;-75
2021/10/31 09:14:05;;;;;;;43.28;30.40;;;22.50;46.60;;;;;;5056056;28;20028;-74
2021/10/31 09:16:31;;;;;;;49.53;38.80;;;22.60;46.40;;;;;;5045554;28;20020;-75
2021/10/31 09:18:56;;;;;;;22.10;17.92;;;22.60;46.20;;;;;;5051995;28;20029;-75
2021/10/31 09:21:25;;;;;;;22.42;16.73;;;22.50;46.10;;;;;;5066960;28;20548;-75
2021/10/31 09:23:50;;;;;;;26.33;20.25;;;22.40;46.40;;;;;;5054843;28;20028;-75
2021/10/31 09:26:19;;;;;;;27.70;19.90;;;22.40;46.80;;;;;;5054018;28;20159;-75
2021/10/31 09:28:46;;;;;;;23.70;19.02;;;22.60;47.40;;;;;;5052921;28;20039;-75
2021/10/31 09:31:14;;;;;;;25.42;20.08;;;22.70;47.50;;;;;;5078110;28;20028;-75
2021/10/31 09:33:40;;;;;;;24.85;19.15;;;22.90;47.00;;;;;;5049058;28;20483;-75
2021/10/31 09:36:06;;;;;;;27.13;20.55;;;22.90;47.00;;;;;;5055320;28;20471;-75
2021/10/31 09:38:32;;;;;;;25.77;19.92;;;23.00;46.80;;;;;;5074084;28;20052;-73
2021/10/31 09:40:58;;;;;;;25.67;20.85;;;22.90;46.60;;;;;;5048519;28;20025;-75
2021/10/31 09:43:28;;;;;;;25.13;20.38;;;22.80;46.60;;;;;;5066580;28;20066;-77
2021/10/31 09:45:59;;;;;;;24.02;19.35;;;22.90;46.60;;;;;;5065930;28;20020;-75
2021/10/31 09:48:32;;;;;;;23.20;18.55;;;22.80;46.50;;;;;;5073728;28;20025;-77
2021/10/31 09:50:59;;;;;;;25.67;18.92;;;22.60;46.80;;;;;;5071186;28;20082;-77
2021/10/31 09:53:26;;;;;;;26.52;19.65;;;22.60;46.70;;;;;;5060461;28;20430;-74
2021/10/31 09:55:53;;;;;;;23.55;20.02;;;22.60;46.80;;;;;;5068317;28;20032;-75
2021/10/31 09:58:42;;;;;;;33.17;28.20;;;22.80;46.80;;;;;;5054864;28;20025;-75
2021/10/31 10:01:29;;;;;;;26.55;19.63;;;22.90;46.60;;;;;;5066253;28;20048;-74
2021/10/31 10:03:56;;;;;;;31.02;24.58;;;23.10;46.40;;;;;;5049673;28;20547;-74
2021/10/31 10:06:25;;;;;;;29.25;23.85;;;23.10;45.80;;;;;;5049683;28;20028;-74
2021/10/31 10:09:11;;;;;;;28.48;22.98;;;23.00;45.80;;;;;;5050608;28;20169;-74
2021/10/31 10:11:39;;;;;;;29.02;23.48;;;23.00;45.90;;;;;;5048977;28;20395;-74
2021/10/31 10:14:28;;;;;;;28.40;22.52;;;22.90;45.80;;;;;;5052764;28;20024;-74
2021/10/31 10:17:03;;;;;;;32.95;25.33;;;22.90;46.20;;;;;;5068700;28;20029;-75
2021/10/31 10:19:32;;;;;;;30.55;26.13;;;22.90;46.00;;;;;;5045840;28;20029;-75
2021/10/31 10:22:00;;;;;;;31.55;23.25;;;22.70;45.80;;;;;;5070965;28;20033;-75
2021/10/31 10:24:33;;;;;;;34.20;26.30;;;22.30;45.90;;;;;;5054831;28;20029;-75
2021/10/31 10:27:05;;;;;;;34.85;25.90;;;21.90;46.20;;;;;;5049724;28;20051;-75
2021/10/31 10:29:37;;;;;;;39.53;30.60;;;21.60;46.50;;;;;;5054570;28;20039;-76
2021/10/31 10:32:32;;;;;;;39.10;29.70;;;21.20;47.00;;;;;;5038520;28;20020;-74
2021/10/31 10:34:59;;;;;;;42.58;32.53;;;20.70;48.30;;;;;;5036391;28;20032;-76
2021/10/31 10:37:34;;;;;;;48.75;34.92;;;20.70;48.80;;;;;;5048537;28;20402;-74
2021/10/31 10:40:07;;;;;;;46.63;37.10;;;20.60;49.00;;;;;;5056096;28;20052;-74
2021/10/31 10:42:39;;;;;;;48.08;35.83;;;20.30;48.80;;;;;;5063105;28;20112;-74
2021/10/31 10:45:08;;;;;;;45.10;33.55;;;20.00;49.30;;;;;;5053860;28;20100;-75
2021/10/31 10:47:43;;;;;;;44.90;32.97;;;19.80;49.70;;;;;;5053628;28;20115;-76
2021/10/31 10:50:28;;;;;;;37.90;27.88;;;19.70;50.30;;;;;;5054770;28;20116;-74
2021/10/31 10:52:55;;;;;;;41.25;30.30;;;19.60;50.00;;;;;;5056072;28;20086;-73
2021/10/31 10:55:25;;;;;;;42.88;30.35;;;19.40;50.40;;;;;;5063812;28;20021;-74
2021/10/31 10:58:00;;;;;;;37.65;29.10;;;19.10;51.00;;;;;;5050826;28;20439;-75
2021/10/31 11:00:32;;;;;;;39.25;28.52;;;19.10;51.70;;;;;;5050802;28;20425;-75
2021/10/31 11:03:10;;;;;;;37.88;27.23;;;19.20;51.50;;;;;;5059681;28;20036;-73
2021/10/31 11:05:41;;;;;;;29.70;22.98;;;19.20;51.20;;;;;;5053570;28;20033;-74
2021/10/31 11:08:16;;;;;;;29.17;23.02;;;19.20;50.90;;;;;;5074699;28;20343;-73
2021/10/31 11:10:49;;;;;;;;;;;19.20;50.80;;;;;;5053234;28;20051;-74
2021/10/31 11:13:15;;;;;;;30.63;20.80;;;19.10;51.00;;;;;;5050896;28;19915;-74
2021/10/31 11:15:41;;;;;;;31.58;22.00;;;18.90;51.00;;;;;;5075925;28;20024;-75
2021/10/31 11:18:08;;;;;;;30.83;22.88;;;18.80;51.00;;;;;;5052578;28;20097;-74
2021/10/31 11:20:41;;;;;;;28.67;22.30;;;18.60;51.10;;;;;;5050347;28;20531;-74
2021/10/31 11:23:10;;;;;;;33.80;22.83;;;18.30;51.20;;;;;;5046616;28;20471;-74
2021/10/31 11:25:38;;;;;;;34.65;23.98;;;18.20;52.10;;;;;;5064735;28;20060;-75
2021/10/31 11:28:08;;;;;;;32.20;24.40;;;18.10;51.90;;;;;;5068364;28;20062;-74
2021/10/31 11:30:35;;;;;;;28.45;22.20;;;18.00;52.40;;;;;;5067015;28;20064;-73
2021/10/31 11:33:03;;;;;;;27.65;22.10;;;17.90;52.50;;;;;;5053092;28;20032;-74
2021/10/31 11:35:31;;;;;;;28.13;21.08;;;17.70;52.80;;;;;;5053554;28;20028;-74
2021/10/31 11:38:20;;;;;;;31.80;21.63;;;17.80;52.80;;;;;;5051667;28;20033;-73
2021/10/31 11:40:56;;;;;;;31.20;21.80;;;17.80;52.80;;;;;;5050966;28;20057;-72
2021/10/31 11:43:25;;;;;;;29.08;22.55;;;17.70;52.90;;;;;;5045588;28;20073;-74
2021/10/31 11:45:54;;;;;;;32.72;22.85;;;17.60;53.00;;;;;;5051965;28;20024;-75
2021/10/31 11:48:22;;;;;;;30.75;22.70;;;17.70;53.10;;;;;;5068574;28;20036;-75
2021/10/31 11:51:02;;;;;;;28.67;19.77;;;17.60;53.10;;;;;;5052573;28;21632;-74
2021/10/31 11:53:40;;;;;;;28.02;21.50;;;17.40;53.10;;;;;;5067209;28;20040;-75
2021/10/31 11:56:27;;;;;;;23.83;17.38;;;17.20;53.50;;;;;;5052747;28;20055;-75
2021/10/31 11:59:01;;;;;;;25.35;19.77;;;16.90;53.60;;;;;;5053587;28;20078;-74
2021/10/31 12:01:47;;;;;;;41.72;29.10;;;16.80;54.40;;;;;;5059104;28;20425;-74
2021/10/31 12:04:42;;;;;;;27.15;19.80;;;16.80;54.60;;;;;;5046068;28;20068;-74
2021/10/31 12:07:39;;;;;;;27.25;20.83;;;16.60;54.60;;;;;;5067396;28;20363;-75
2021/10/31 12:10:30;;;;;;;28.58;20.55;;;16.50;55.10;;;;;;5067193;28;20074;-73
2021/10/31 12:13:23;;;;;;;30.08;21.65;;;16.50;55.50;;;;;;5049491;28;20491;-75
2021/10/31 12:16:13;;;;;;;25.95;19.40;;;16.30;55.30;;;;;;5063701;28;20036;-76
2021/10/31 12:18:42;;;;;;;22.63;16.75;;;16.10;55.90;;;;;;5054104;28;20025;-75
2021/10/31 12:21:32;;;;;;;30.48;22.40;;;15.80;56.10;;;;;;5056206;28;20198;-74
2021/10/31 12:24:01;;;;;;;30.55;21.10;;;15.50;56.80;;;;;;5054905;28;20127;-73
2021/10/31 12:26:36;;;;;;;40.75;29.52;;;15.30;57.60;;;;;;5055688;28;20076;-76
2021/10/31 12:29:08;;;;;;;26.65;20.30;;;15.10;58.10;;;;;;5052729;28;20538;-72
2021/10/31 12:31:34;;;;;;;29.52;20.77;;;14.90;58.40;;;;;;5054920;28;20475;-73
2021/10/31 12:34:21;;;;;;;33.22;24.80;;;14.70;58.90;;;;;;5057175;28;20025;-74
2021/10/31 12:36:57;;;;;;;34.50;28.40;;;14.50;59.40;;;;;;5066533;28;20474;-75
2021/10/31 12:39:27;;;;;;;29.73;20.88;;;14.30;60.00;;;;;;5054509;28;20608;-72